Time;durP1;ratioP1;P1;durP2;ratioP2;P2;SDS_P1;SDS_P2;PMS_P1;PMS_P2;Temp;Humidity;BMP_temperature;BMP_pressure;BME280_temperature;BME280_humidity;BME280_pressure;Samples;Min_cycle;Max_cycle;Signal;HPM_P1;HPM_P2
2023/06/17 00:01:29;;;;;;;9.93;7.10;;;20.40;90.70;;;;;;5075053;28;20202;-63
2023/06/17 00:03:57;;;;;;;11.83;7.67;;;20.30;90.60;;;;;;5066260;28;20879;-64
2023/06/17 00:06:24;;;;;;;11.20;6.97;;;20.30;90.60;;;;;;5073331;28;20217;-63
2023/06/17 00:08:51;;;;;;;13.87;6.77;;;20.20;90.50;;;;;;5074477;28;20199;-64
2023/06/17 00:11:18;;;;;;;12.70;7.37;;;20.20;90.50;;;;;;5072718;28;20193;-63
2023/06/17 00:13:46;;;;;;;9.00;7.17;;;20.10;90.60;;;;;;5071482;28;20538;-64
2023/06/17 00:16:13;;;;;;;11.13;7.40;;;20.10;90.60;;;;;;5078175;28;20193;-63
2023/06/17 00:18:41;;;;;;;15.43;7.67;;;20.10;90.60;;;;;;5072603;28;20863;-63
2023/06/17 00:21:08;;;;;;;18.13;7.20;;;20.10;90.50;;;;;;5057768;28;20671;-63
2023/06/17 00:23:36;;;;;;;12.23;7.57;;;20.00;90.50;;;;;;5083334;28;20234;-62
2023/06/17 00:26:03;;;;;;;11.53;6.80;;;20.00;90.60;;;;;;5076923;28;20198;-65
2023/06/17 00:28:30;;;;;;;14.13;6.83;;;20.00;90.60;;;;;;5077824;28;20288;-64
2023/06/17 00:30:57;;;;;;;17.77;7.67;;;20.00;90.50;;;;;;5061987;28;20603;-64
2023/06/17 00:33:24;;;;;;;22.83;7.60;;;19.90;90.50;;;;;;5062863;28;20590;-63
2023/06/17 00:35:51;;;;;;;11.93;6.60;;;19.90;90.40;;;;;;5074169;28;20690;-63
2023/06/17 00:38:21;;;;;;;13.20;7.37;;;19.90;90.40;;;;;;5074060;28;20189;-63
2023/06/17 00:40:48;;;;;;;17.97;6.67;;;19.90;90.20;;;;;;5075797;28;20706;-64
2023/06/17 00:43:15;;;;;;;12.53;6.70;;;19.80;90.20;;;;;;5069652;28;20210;-63
2023/06/17 00:45:42;;;;;;;26.47;8.10;;;19.80;90.20;;;;;;5065420;28;20240;-63
2023/06/17 00:48:10;;;;;;;16.43;6.63;;;19.70;90.30;;;;;;5075876;28;20201;-65
2023/06/17 00:50:38;;;;;;;9.50;7.00;;;19.70;90.40;;;;;;5077896;28;20217;-66
2023/06/17 00:53:06;;;;;;;14.50;7.20;;;19.70;90.50;;;;;;5071166;28;20216;-63
2023/06/17 00:55:34;;;;;;;10.60;6.80;;;19.60;90.50;;;;;;5062232;28;20204;-63
2023/06/17 00:58:02;;;;;;;13.80;6.00;;;19.60;90.60;;;;;;5078275;28;20560;-63
2023/06/17 01:00:29;;;;;;;17.77;6.80;;;19.60;90.80;;;;;;5068111;28;20200;-62
2023/06/17 01:02:56;;;;;;;14.73;7.50;;;19.60;90.90;;;;;;5059560;28;20206;-63
2023/06/17 01:05:24;;;;;;;21.17;7.13;;;19.60;91.10;;;;;;5069569;28;20647;-63
2023/06/17 01:08:19;;;;;;;15.93;6.97;;;19.60;91.20;;;;;;5077018;28;20270;-63
2023/06/17 01:10:53;;;;;;;18.43;6.43;;;19.60;91.30;;;;;;5068591;28;20200;-63
2023/06/17 01:13:27;;;;;;;19.53;8.27;;;19.50;91.40;;;;;;5054749;28;20220;-63
2023/06/17 01:15:54;;;;;;;24.63;7.53;;;19.50;91.40;;;;;;5072451;28;20223;-63
2023/06/17 01:18:22;;;;;;;21.53;7.60;;;19.50;91.30;;;;;;5060423;28;20623;-63
2023/06/17 01:20:53;;;;;;;14.93;7.67;;;19.50;91.30;;;;;;5066292;28;20205;-64
2023/06/17 01:23:35;;;;;;;13.63;7.27;;;19.50;91.40;;;;;;5055266;28;20249;-63
2023/06/17 01:26:02;;;;;;;19.40;7.13;;;19.40;91.60;;;;;;5043321;28;20206;-64
2023/06/17 01:28:30;;;;;;;48.80;7.97;;;19.40;91.60;;;;;;5074282;28;20204;-63
2023/06/17 01:30:58;;;;;;;40.13;9.23;;;19.40;91.50;;;;;;5060389;28;20534;-63
2023/06/17 01:33:26;;;;;;;32.80;7.33;;;19.30;91.30;;;;;;5069827;28;20218;-63
2023/06/17 01:36:04;;;;;;;19.70;7.67;;;19.30;91.20;;;;;;5080239;28;20672;-64
2023/06/17 01:38:42;;;;;;;21.80;8.27;;;19.20;91.40;;;;;;5076794;28;20200;-63
2023/06/17 01:41:19;;;;;;;17.77;8.37;;;19.20;91.60;;;;;;5056285;28;20198;-63
2023/06/17 01:43:48;;;;;;;28.70;9.00;;;19.20;91.80;;;;;;5077084;28;20285;-64
2023/06/17 01:46:16;;;;;;;26.03;8.10;;;19.20;91.70;;;;;;5074888;28;20206;-64
2023/06/17 01:48:44;;;;;;;28.27;8.03;;;19.10;91.50;;;;;;5072927;28;20277;-63
2023/06/17 01:51:11;;;;;;;13.77;7.00;;;19.00;91.50;;;;;;5058889;28;20201;-63
2023/06/17 01:53:38;;;;;;;34.03;7.87;;;19.00;91.70;;;;;;5072192;28;20224;-63
2023/06/17 01:56:06;;;;;;;25.33;7.90;;;19.00;91.90;;;;;;5075067;28;20639;-63
2023/06/17 01:58:33;;;;;;;11.17;7.90;;;19.00;92.00;;;;;;5064422;28;20293;-64
2023/06/17 02:01:00;;;;;;;26.57;8.13;;;19.00;92.00;;;;;;5067762;28;20211;-64
2023/06/17 02:03:27;;;;;;;23.80;8.20;;;18.90;91.70;;;;;;5082922;28;20209;-64
2023/06/17 02:05:55;;;;;;;13.33;7.37;;;18.90;91.70;;;;;;5077063;28;20711;-64
2023/06/17 02:08:22;;;;;;;16.53;7.93;;;18.90;91.90;;;;;;5071575;28;20233;-63
2023/06/17 02:10:50;;;;;;;11.83;8.47;;;18.80;92.00;;;;;;5067076;28;20209;-63
2023/06/17 02:13:17;;;;;;;13.63;7.60;;;18.80;92.50;;;;;;5077527;28;20281;-63
2023/06/17 02:15:44;;;;;;;17.73;7.57;;;18.80;92.30;;;;;;5056710;28;20202;-64
2023/06/17 02:18:12;;;;;;;17.07;7.17;;;18.80;92.40;;;;;;5063428;28;20536;-63
2023/06/17 02:20:39;;;;;;;17.47;8.23;;;18.80;92.40;;;;;;5085015;28;20195;-63
2023/06/17 02:23:07;;;;;;;15.67;7.03;;;18.80;92.40;;;;;;5095443;28;20352;-64
2023/06/17 02:25:36;;;;;;;18.20;7.13;;;18.80;92.30;;;;;;5070565;28;20217;-64
2023/06/17 02:28:03;;;;;;;15.17;7.40;;;18.90;92.20;;;;;;5057053;28;20244;-63
2023/06/17 02:30:31;;;;;;;15.93;7.07;;;18.90;92.00;;;;;;5073029;28;20204;-63
2023/06/17 02:33:00;;;;;;;15.10;6.77;;;18.80;91.60;;;;;;5076827;28;20224;-63
2023/06/17 02:35:27;;;;;;;15.43;8.47;;;18.70;91.50;;;;;;5080011;28;20203;-66
2023/06/17 02:37:55;;;;;;;19.00;8.67;;;18.60;91.70;;;;;;5059685;28;20196;-63
2023/06/17 02:40:23;;;;;;;19.43;8.20;;;18.60;91.90;;;;;;5066742;28;20205;-68
2023/06/17 02:42:51;;;;;;;15.77;8.07;;;18.60;91.90;;;;;;5059348;28;20211;-63
2023/06/17 02:45:18;;;;;;;13.80;7.73;;;18.50;92.00;;;;;;5063571;28;20214;-63
2023/06/17 02:47:46;;;;;;;17.93;8.43;;;18.50;92.00;;;;;;5058827;28;20301;-63
2023/06/17 02:50:13;;;;;;;14.37;8.40;;;18.50;92.20;;;;;;5059090;28;20312;-64
2023/06/17 02:52:40;;;;;;;18.47;8.53;;;18.50;92.20;;;;;;5071265;28;20208;-64
2023/06/17 02:55:08;;;;;;;12.53;8.50;;;18.50;92.30;;;;;;5061640;28;20569;-65
2023/06/17 02:57:35;;;;;;;14.67;8.83;;;18.50;92.40;;;;;;5063750;28;20586;-66
2023/06/17 03:00:08;;;;;;;18.90;7.77;;;18.50;92.40;;;;;;5062203;28;20208;-63
2023/06/17 03:02:36;;;;;;;18.63;7.90;;;18.50;92.50;;;;;;5069415;28;20518;-64
2023/06/17 03:05:06;;;;;;;16.87;8.50;;;18.50;92.50;;;;;;5061647;28;20231;-63
2023/06/17 03:07:35;;;;;;;11.53;8.10;;;18.50;92.40;;;;;;5061167;28;20266;-64
2023/06/17 03:10:03;;;;;;;16.07;9.03;;;18.50;92.40;;;;;;5067180;28;20572;-63
2023/06/17 03:12:36;;;;;;;16.60;7.73;;;18.50;92.40;;;;;;5062559;28;20618;-63
2023/06/17 03:15:04;;;;;;;15.03;8.07;;;18.50;92.50;;;;;;5057332;28;20221;-63
2023/06/17 03:17:31;;;;;;;17.10;9.07;;;18.50;92.50;;;;;;5069693;28;20189;-65
2023/06/17 03:19:59;;;;;;;12.87;8.80;;;18.50;92.50;;;;;;5059043;28;20212;-63
2023/06/17 03:22:26;;;;;;;19.93;9.13;;;18.50;92.50;;;;;;5051052;28;20239;-63
2023/06/17 03:24:53;;;;;;;17.40;8.97;;;18.50;92.60;;;;;;5033329;28;20198;-65
2023/06/17 03:27:20;;;;;;;14.20;7.90;;;18.50;92.70;;;;;;5036007;28;20217;-64
2023/06/17 03:29:49;;;;;;;11.33;7.50;;;18.50;92.70;;;;;;5028577;28;20206;-63
2023/06/17 03:32:16;;;;;;;19.07;8.20;;;18.50;92.60;;;;;;5037373;28;20208;-63
2023/06/17 03:34:44;;;;;;;18.43;8.77;;;18.50;92.60;;;;;;5034700;28;20212;-63
2023/06/17 03:37:12;;;;;;;14.87;8.43;;;18.50;92.70;;;;;;5034094;28;21053;-64
2023/06/17 03:39:39;;;;;;;12.70;8.73;;;18.50;92.60;;;;;;5033898;28;20222;-63
2023/06/17 03:42:07;;;;;;;14.73;8.03;;;18.50;92.40;;;;;;5031766;28;20227;-64
2023/06/17 03:44:34;;;;;;;13.80;8.10;;;18.50;92.30;;;;;;5030015;28;20222;-63
2023/06/17 03:47:02;;;;;;;12.67;9.47;;;18.40;92.40;;;;;;5036592;28;20209;-63
2023/06/17 03:49:31;;;;;;;24.87;10.67;;;18.40;92.40;;;;;;5039728;28;20272;-63
2023/06/17 03:51:58;;;;;;;13.17;10.00;;;18.40;92.50;;;;;;5039046;28;20199;-64
2023/06/17 03:54:26;;;;;;;18.57;9.43;;;18.40;92.50;;;;;;5033931;28;20598;-64
2023/06/17 03:56:55;;;;;;;22.77;9.10;;;18.40;92.60;;;;;;5034496;28;20195;-63
2023/06/17 03:59:22;;;;;;;13.47;9.30;;;18.40;92.70;;;;;;5033739;28;20194;-64
2023/06/17 04:01:49;;;;;;;14.70;8.90;;;18.40;92.60;;;;;;5027309;28;20267;-63
2023/06/17 04:04:17;;;;;;;17.90;8.97;;;18.40;92.60;;;;;;5040175;28;20214;-64
2023/06/17 04:06:45;;;;;;;14.60;9.03;;;18.40;92.60;;;;;;5034872;28;20201;-63
2023/06/17 04:09:12;;;;;;;10.97;9.30;;;18.50;92.70;;;;;;5043233;28;20205;-64
2023/06/17 04:11:40;;;;;;;10.77;8.80;;;18.50;92.70;;;;;;5034961;28;20206;-64
2023/06/17 04:14:10;;;;;;;12.73;9.07;;;18.50;92.70;;;;;;5033382;28;20217;-64
2023/06/17 04:16:37;;;;;;;17.80;9.33;;;18.50;92.70;;;;;;5037682;28;20308;-63
2023/06/17 04:19:04;;;;;;;18.37;9.17;;;18.50;92.60;;;;;;5037316;28;20201;-64
2023/06/17 04:21:31;;;;;;;16.03;9.10;;;18.50;92.40;;;;;;5040736;28;20659;-63
2023/06/17 04:23:58;;;;;;;14.20;8.50;;;18.50;92.50;;;;;;5018061;28;20240;-63
2023/06/17 04:26:25;;;;;;;13.70;10.00;;;18.60;92.60;;;;;;5037582;28;20640;-63
2023/06/17 04:28:53;;;;;;;13.50;9.17;;;18.60;92.50;;;;;;5035456;28;20308;-66
2023/06/17 04:31:21;;;;;;;14.30;10.03;;;18.60;92.50;;;;;;5032674;28;20208;-63
2023/06/17 04:33:49;;;;;;;17.50;9.93;;;18.70;92.50;;;;;;5030904;28;20709;-64
2023/06/17 04:36:17;;;;;;;14.87;9.43;;;18.80;92.60;;;;;;5031948;28;20224;-63
2023/06/17 04:38:49;;;;;;;14.27;8.80;;;18.80;92.60;;;;;;5030633;28;20258;-63
2023/06/17 04:41:17;;;;;;;13.70;8.77;;;18.80;92.60;;;;;;5030652;28;20213;-63
2023/06/17 04:43:48;;;;;;;9.93;8.93;;;18.90;92.70;;;;;;5034842;28;20219;-64
2023/06/17 04:46:17;;;;;;;9.40;7.60;;;18.90;92.70;;;;;;5033989;28;20205;-63
2023/06/17 04:48:45;;;;;;;9.60;8.27;;;19.00;92.80;;;;;;5032973;28;20239;-63
2023/06/17 04:51:12;;;;;;;10.93;7.47;;;19.00;92.80;;;;;;5036420;28;20198;-63
2023/06/17 04:53:40;;;;;;;18.10;7.83;;;19.10;92.90;;;;;;5067429;28;20555;-63
2023/06/17 04:56:07;;;;;;;15.50;7.60;;;19.20;93.00;;;;;;5032998;28;20346;-63
2023/06/17 04:58:36;;;;;;;12.83;7.83;;;19.30;93.00;;;;;;5039957;28;20572;-63
2023/06/17 05:01:10;;;;;;;12.67;8.70;;;19.40;93.00;;;;;;5034527;28;20201;-64
2023/06/17 05:03:38;;;;;;;12.97;8.07;;;19.40;93.00;;;;;;5030312;28;20218;-64
2023/06/17 05:06:06;;;;;;;16.57;8.60;;;19.50;93.00;;;;;;5036649;28;20222;-64
2023/06/17 05:08:34;;;;;;;8.50;7.63;;;19.60;93.00;;;;;;5033661;28;20215;-64
2023/06/17 05:11:01;;;;;;;13.23;8.40;;;19.70;92.90;;;;;;5031925;28;20213;-63
2023/06/17 05:13:30;;;;;;;10.03;7.43;;;19.80;92.90;;;;;;5020646;28;20660;-65
2023/06/17 05:15:58;;;;;;;11.23;8.33;;;19.90;92.90;;;;;;5033652;28;20620;-65
2023/06/17 05:18:27;;;;;;;14.17;8.10;;;20.00;92.70;;;;;;5063589;28;20195;-66
2023/06/17 05:20:55;;;;;;;8.67;7.03;;;20.10;92.60;;;;;;5036662;28;20294;-66
2023/06/17 05:23:22;;;;;;;11.97;7.60;;;20.30;92.50;;;;;;5020620;28;20227;-66
2023/06/17 05:25:50;;;;;;;13.47;7.37;;;20.40;92.30;;;;;;5028206;28;20635;-66
2023/06/17 05:28:18;;;;;;;14.47;7.17;;;20.50;92.10;;;;;;5024516;28;20230;-65
2023/06/17 05:30:45;;;;;;;11.73;7.27;;;20.60;92.00;;;;;;5033119;28;20217;-66
2023/06/17 05:33:15;;;;;;;9.40;7.40;;;20.70;91.80;;;;;;5024965;28;20242;-66
2023/06/17 05:35:42;;;;;;;10.33;6.87;;;20.80;91.70;;;;;;5033577;28;20249;-66
2023/06/17 05:38:09;;;;;;;9.90;7.00;;;21.00;91.60;;;;;;5040927;28;20194;-65
2023/06/17 05:40:36;;;;;;;12.47;7.83;;;21.20;91.40;;;;;;5040685;28;20203;-66
2023/06/17 05:43:04;;;;;;;14.70;7.73;;;21.30;91.20;;;;;;5039062;28;20210;-66
2023/06/17 05:45:31;;;;;;;7.07;6.33;;;21.50;91.00;;;;;;5035528;28;20243;-66
2023/06/17 05:47:58;;;;;;;10.03;7.27;;;21.70;90.90;;;;;;5030446;28;20637;-68
2023/06/17 05:50:28;;;;;;;11.87;7.63;;;21.80;90.70;;;;;;5033725;28;20239;-65
2023/06/17 05:52:57;;;;;;;8.73;7.70;;;21.90;90.60;;;;;;5030774;28;20202;-65
2023/06/17 05:55:24;;;;;;;7.40;6.60;;;22.00;90.50;;;;;;5036293;28;20546;-65
2023/06/17 05:57:52;;;;;;;11.57;7.47;;;22.10;90.50;;;;;;5038352;28;20206;-67
2023/06/17 06:00:20;;;;;;;6.67;5.97;;;22.30;90.50;;;;;;5033014;28;20309;-65
2023/06/17 06:02:49;;;;;;;6.77;5.93;;;22.40;90.30;;;;;;5037700;28;20206;-65
2023/06/17 06:05:17;;;;;;;12.67;6.77;;;22.60;89.70;;;;;;5039942;28;20540;-65
2023/06/17 06:07:44;;;;;;;7.07;6.07;;;22.70;88.70;;;;;;5033349;28;20262;-63
2023/06/17 06:10:11;;;;;;;16.27;6.97;;;22.80;88.50;;;;;;5035940;28;20199;-63
2023/06/17 06:12:43;;;;;;;7.43;5.63;;;23.00;88.30;;;;;;5048278;28;20580;-63
2023/06/17 06:15:10;;;;;;;9.17;5.97;;;23.10;87.90;;;;;;5037886;28;20250;-63
2023/06/17 06:17:37;;;;;;;11.30;6.57;;;23.20;87.40;;;;;;5034659;28;20199;-63
2023/06/17 06:20:05;;;;;;;9.93;6.57;;;23.40;87.00;;;;;;5039815;28;20290;-63
2023/06/17 06:22:33;;;;;;;9.67;5.83;;;23.50;86.50;;;;;;5035699;28;20227;-63
2023/06/17 06:25:00;;;;;;;10.87;5.73;;;23.60;86.00;;;;;;5041067;28;20214;-63
2023/06/17 06:27:27;;;;;;;8.53;5.90;;;23.70;85.70;;;;;;5028812;28;20322;-63
2023/06/17 06:29:56;;;;;;;11.67;5.93;;;23.90;85.60;;;;;;5018388;28;20196;-64
2023/06/17 06:32:23;;;;;;;11.60;6.10;;;24.00;85.10;;;;;;5039373;28;20253;-63
2023/06/17 06:34:52;;;;;;;9.37;5.47;;;24.10;84.30;;;;;;5036379;28;20256;-63
2023/06/17 06:37:20;;;;;;;6.23;5.03;;;24.20;84.20;;;;;;5037713;28;20218;-67
2023/06/17 06:39:48;;;;;;;8.20;5.50;;;24.30;82.90;;;;;;5037320;28;20203;-63
2023/06/17 06:42:16;;;;;;;11.83;4.97;;;24.40;82.40;;;;;;5023442;28;20201;-63
2023/06/17 06:45:06;;;;;;;8.27;5.80;;;24.50;82.00;;;;;;5025444;28;20219;-63
2023/06/17 06:47:34;;;;;;;8.00;5.40;;;24.60;81.70;;;;;;5031573;28;20292;-62
2023/06/17 06:50:01;;;;;;;8.33;5.43;;;24.70;81.40;;;;;;5032932;28;20207;-64
2023/06/17 06:52:29;;;;;;;8.10;5.60;;;24.80;81.30;;;;;;5036410;28;20211;-63
2023/06/17 06:54:56;;;;;;;8.90;5.40;;;25.00;81.20;;;;;;5036469;28;20739;-63
2023/06/17 06:57:23;;;;;;;8.33;5.47;;;25.10;80.60;;;;;;5032516;28;20227;-65
2023/06/17 06:59:52;;;;;;;8.87;5.30;;;25.30;79.90;;;;;;5033832;28;20206;-63
2023/06/17 07:02:20;;;;;;;5.73;4.80;;;25.40;79.20;;;;;;5035895;28;20209;-62
2023/06/17 07:04:48;;;;;;;7.70;5.13;;;25.50;78.00;;;;;;5040978;28;20219;-63
2023/06/17 07:07:19;;;;;;;7.20;5.07;;;25.60;77.80;;;;;;5031435;28;20266;-63
2023/06/17 07:09:47;;;;;;;5.77;5.17;;;25.70;77.40;;;;;;5034325;28;20211;-62
2023/06/17 07:12:14;;;;;;;8.17;5.63;;;25.80;77.00;;;;;;5033813;28;20301;-63
2023/06/17 07:14:41;;;;;;;9.60;5.30;;;25.90;76.90;;;;;;5041285;28;20227;-63
2023/06/17 07:17:08;;;;;;;9.53;5.53;;;26.00;76.30;;;;;;5029944;28;20637;-64
2023/06/17 07:19:37;;;;;;;6.50;5.17;;;26.10;75.90;;;;;;5038421;28;20337;-63
2023/06/17 07:22:07;;;;;;;10.30;4.73;;;26.30;75.90;;;;;;5038076;28;20245;-63
2023/06/17 07:24:36;;;;;;;5.83;4.90;;;26.40;76.10;;;;;;5047778;28;20556;-63
2023/06/17 07:27:03;;;;;;;6.77;4.40;;;26.50;75.00;;;;;;5074495;28;20543;-64
2023/06/17 07:29:32;;;;;;;7.33;4.40;;;26.60;74.60;;;;;;5054912;28;20204;-62
2023/06/17 07:31:59;;;;;;;6.23;4.53;;;26.70;74.50;;;;;;5066603;28;20305;-62
2023/06/17 07:34:27;;;;;;;9.87;4.80;;;26.90;74.30;;;;;;5074911;28;20634;-63
2023/06/17 07:36:54;;;;;;;8.73;4.77;;;26.90;73.40;;;;;;5057833;28;20198;-63
2023/06/17 07:39:21;;;;;;;6.63;5.57;;;27.00;73.00;;;;;;5078575;28;20595;-64
2023/06/17 07:41:48;;;;;;;5.77;4.73;;;27.10;72.80;;;;;;5076009;28;20212;-63
2023/06/17 07:44:16;;;;;;;5.70;4.67;;;27.20;72.40;;;;;;5078902;28;20208;-63
2023/06/17 07:46:43;;;;;;;7.63;4.90;;;27.30;72.00;;;;;;5074301;28;20217;-64
2023/06/17 07:49:10;;;;;;;7.63;4.67;;;27.40;71.00;;;;;;5084459;28;20648;-63
2023/06/17 07:51:37;;;;;;;5.87;4.87;;;27.40;70.90;;;;;;5076408;28;20288;-64
2023/06/17 07:54:07;;;;;;;5.63;4.57;;;27.50;69.70;;;;;;5075212;28;20206;-63
2023/06/17 07:56:34;;;;;;;4.87;4.10;;;27.50;70.00;;;;;;5070771;28;20213;-64
2023/06/17 07:59:02;;;;;;;9.13;4.40;;;27.70;69.30;;;;;;5070378;28;20282;-62
2023/06/17 08:01:29;;;;;;;7.93;4.73;;;27.80;68.50;;;;;;5072554;28;20201;-62
2023/06/17 08:03:56;;;;;;;8.97;5.70;;;27.80;68.20;;;;;;5073070;28;20632;-63
2023/06/17 08:06:23;;;;;;;8.80;5.00;;;27.90;67.70;;;;;;5079537;28;20205;-63
2023/06/17 08:08:51;;;;;;;7.33;5.07;;;28.00;69.10;;;;;;5077207;28;20198;-62
2023/06/17 08:11:18;;;;;;;9.47;4.40;;;28.20;68.60;;;;;;5068842;28;20281;-62
2023/06/17 08:13:46;;;;;;;5.80;4.73;;;28.30;68.70;;;;;;5076113;28;21013;-63
2023/06/17 08:16:13;;;;;;;10.27;4.53;;;28.40;68.00;;;;;;5075754;28;20223;-63
2023/06/17 08:18:40;;;;;;;4.83;4.20;;;28.50;67.20;;;;;;5074317;28;20281;-63
2023/06/17 08:21:07;;;;;;;4.83;4.40;;;28.60;66.70;;;;;;5076283;28;20198;-62
2023/06/17 08:23:34;;;;;;;7.87;4.80;;;28.80;66.50;;;;;;5076216;28;20235;-64
2023/06/17 08:26:01;;;;;;;6.57;5.80;;;28.90;66.10;;;;;;5055871;28;20244;-63
2023/06/17 08:28:28;;;;;;;7.37;4.93;;;29.00;66.70;;;;;;5073422;28;20644;-62
2023/06/17 08:30:55;;;;;;;6.67;4.70;;;29.00;66.30;;;;;;5074117;28;20197;-64
2023/06/17 08:33:22;;;;;;;4.93;4.50;;;29.10;65.40;;;;;;5076195;28;20198;-63
2023/06/17 08:35:49;;;;;;;5.60;4.90;;;29.20;64.50;;;;;;5070329;28;20217;-62
2023/06/17 08:38:16;;;;;;;9.13;5.47;;;29.30;64.20;;;;;;5067319;28;20237;-63
2023/06/17 08:40:45;;;;;;;5.50;5.00;;;29.30;63.60;;;;;;5073043;28;20194;-66
2023/06/17 08:43:19;;;;;;;8.57;4.83;;;29.30;64.50;;;;;;5074328;28;20255;-64
2023/06/17 08:45:49;;;;;;;7.87;5.47;;;29.30;64.60;;;;;;5079493;28;20237;-64
2023/06/17 08:48:17;;;;;;;6.13;5.17;;;29.40;63.80;;;;;;5069035;28;20335;-62
2023/06/17 08:50:47;;;;;;;9.13;5.40;;;29.50;62.70;;;;;;5080739;28;20488;-63
2023/06/17 08:53:14;;;;;;;5.90;5.40;;;29.50;62.80;;;;;;5083934;28;20203;-63
2023/06/17 08:55:42;;;;;;;5.57;5.07;;;29.60;62.70;;;;;;5077480;28;20554;-64
2023/06/17 08:58:10;;;;;;;8.23;5.87;;;29.70;62.80;;;;;;5070773;28;20531;-62
2023/06/17 09:00:37;;;;;;;8.20;5.90;;;29.80;62.20;;;;;;5068424;28;20190;-62
2023/06/17 09:03:08;;;;;;;6.27;5.23;;;29.80;61.80;;;;;;5076964;28;20213;-62
2023/06/17 09:05:36;;;;;;;6.23;4.80;;;29.90;61.70;;;;;;5076458;28;20194;-65
2023/06/17 09:08:03;;;;;;;5.87;4.90;;;29.90;62.60;;;;;;5071934;28;20229;-62
2023/06/17 09:10:44;;;;;;;5.90;5.27;;;30.00;62.60;;;;;;5070482;28;20218;-63
2023/06/17 09:13:11;;;;;;;5.73;5.13;;;30.10;61.90;;;;;;5068571;28;20288;-62
2023/06/17 09:15:40;;;;;;;12.90;6.57;;;30.30;61.60;;;;;;5073988;28;20662;-62
2023/06/17 09:18:10;;;;;;;7.00;5.40;;;30.40;62.10;;;;;;5074816;28;20275;-62
2023/06/17 09:20:37;;;;;;;8.10;6.50;;;30.40;62.60;;;;;;5067499;28;20205;-62
2023/06/17 09:23:04;;;;;;;8.70;6.33;;;30.50;61.90;;;;;;5075335;28;20240;-62
2023/06/17 09:25:34;;;;;;;6.23;5.50;;;30.50;61.70;;;;;;5077196;28;20217;-64
2023/06/17 09:28:02;;;;;;;7.40;5.90;;;30.60;61.60;;;;;;5077585;28;20212;-69
2023/06/17 09:30:43;;;;;;;6.83;5.40;;;30.70;62.00;;;;;;5075969;28;20292;-64
2023/06/17 09:33:18;;;;;;;7.07;6.37;;;30.80;62.60;;;;;;5074865;28;20646;-62
2023/06/17 09:35:47;;;;;;;6.27;5.77;;;30.90;62.90;;;;;;5068033;28;20887;-62
2023/06/17 09:38:20;;;;;;;7.10;6.00;;;31.00;62.90;;;;;;5069860;28;20190;-63
2023/06/17 09:40:48;;;;;;;9.83;6.53;;;31.00;63.20;;;;;;5072972;28;20198;-64
2023/06/17 09:43:16;;;;;;;6.00;5.20;;;31.10;62.00;;;;;;5072942;28;20273;-61
2023/06/17 09:45:55;;;;;;;7.77;6.13;;;31.20;61.20;;;;;;5071511;28;20206;-62
2023/06/17 09:48:29;;;;;;;7.77;5.77;;;31.20;61.40;;;;;;5069533;28;20615;-62
2023/06/17 09:50:57;;;;;;;7.40;5.73;;;31.30;61.00;;;;;;5077125;28;20202;-65
2023/06/17 09:53:29;;;;;;;6.77;5.33;;;31.40;60.40;;;;;;5074962;28;20624;-63
2023/06/17 09:55:59;;;;;;;6.97;5.40;;;31.40;59.40;;;;;;5075402;28;20206;-62
2023/06/17 09:58:30;;;;;;;5.60;5.10;;;31.40;59.50;;;;;;5075882;28;20209;-61
2023/06/17 10:01:05;;;;;;;4.57;4.17;;;31.50;59.10;;;;;;5081632;28;20243;-62
2023/06/17 10:03:33;;;;;;;5.17;4.60;;;31.50;58.20;;;;;;5079949;28;20651;-62
2023/06/17 10:06:06;;;;;;;4.67;4.13;;;31.60;57.40;;;;;;5072514;28;20632;-61
2023/06/17 10:08:42;;;;;;;6.03;4.27;;;31.70;56.30;;;;;;5068338;28;20612;-64
2023/06/17 10:11:13;;;;;;;7.67;5.47;;;31.70;57.00;;;;;;5071072;28;20205;-62
2023/06/17 10:13:44;;;;;;;6.53;5.00;;;31.80;56.30;;;;;;5071571;28;20284;-61
2023/06/17 10:16:14;;;;;;;6.70;5.20;;;31.90;57.00;;;;;;5077045;28;20216;-61
2023/06/17 10:18:44;;;;;;;8.13;4.33;;;32.00;54.80;;;;;;5073509;28;20197;-61
2023/06/17 10:21:13;;;;;;;9.27;4.97;;;31.90;54.20;;;;;;5075262;28;20197;-62
2023/06/17 10:23:41;;;;;;;8.20;4.27;;;31.90;55.30;;;;;;5076256;28;20230;-63
2023/06/17 10:26:11;;;;;;;5.00;4.57;;;32.00;55.90;;;;;;5077981;28;20189;-62
2023/06/17 10:28:56;;;;;;;8.23;5.93;;;32.10;55.80;;;;;;5078030;28;20202;-62
2023/06/17 10:31:24;;;;;;;4.60;4.20;;;32.20;55.50;;;;;;5073724;28;20229;-62
2023/06/17 10:33:55;;;;;;;7.07;3.80;;;32.30;55.40;;;;;;5076563;28;20202;-62
2023/06/17 10:36:23;;;;;;;4.87;3.67;;;32.40;53.40;;;;;;5073920;28;20213;-61
2023/06/17 10:38:58;;;;;;;4.33;3.93;;;32.40;51.30;;;;;;5074021;28;20220;-61
2023/06/17 10:41:53;;;;;;;10.00;5.27;;;32.40;51.80;;;;;;5077035;28;20196;-61
2023/06/17 10:44:20;;;;;;;4.57;4.17;;;32.40;52.50;;;;;;5074881;28;20259;-61
2023/06/17 10:46:50;;;;;;;22.23;8.63;;;32.50;51.70;;;;;;5076054;28;20202;-62
2023/06/17 10:49:19;;;;;;;54.63;16.03;;;32.50;52.30;;;;;;5070809;28;20206;-66
2023/06/17 10:51:50;;;;;;;5.27;4.60;;;32.50;49.20;;;;;;5072295;28;20194;-62
2023/06/17 10:54:31;;;;;;;119.40;28.43;;;32.40;48.80;;;;;;5083261;28;20276;-62
2023/06/17 10:57:04;;;;;;;5.03;4.20;;;32.30;49.50;;;;;;5074828;28;20323;-63
2023/06/17 10:59:32;;;;;;;94.93;28.37;;;32.20;50.70;;;;;;5082692;28;20198;-62
2023/06/17 11:02:01;;;;;;;147.52;42.85;;;32.20;51.20;;;;;;5076946;28;20638;-64
2023/06/17 11:04:32;;;;;;;5.90;4.40;;;32.30;51.60;;;;;;5076683;28;20200;-62
2023/06/17 11:07:02;;;;;;;4.73;4.33;;;32.40;51.00;;;;;;5084168;28;20224;-62
2023/06/17 11:09:30;;;;;;;4.23;3.83;;;32.40;50.30;;;;;;5075892;28;20547;-62
2023/06/17 11:11:57;;;;;;;4.53;4.13;;;32.40;49.60;;;;;;5074915;28;21408;-65
2023/06/17 11:14:28;;;;;;;4.50;4.10;;;32.40;49.50;;;;;;5078953;28;20264;-62
2023/06/17 11:16:55;;;;;;;4.60;4.20;;;32.20;48.20;;;;;;5076799;28;20209;-62
2023/06/17 11:19:26;;;;;;;5.27;4.33;;;32.10;48.00;;;;;;5075236;28;20251;-62
2023/06/17 11:21:57;;;;;;;4.80;4.00;;;32.00;48.40;;;;;;5070107;28;20577;-63
2023/06/17 11:24:25;;;;;;;4.57;3.57;;;31.90;49.50;;;;;;5072054;28;20185;-63
2023/06/17 11:26:54;;;;;;;3.70;3.40;;;31.90;49.20;;;;;;5072463;28;20219;-62
2023/06/17 11:29:22;;;;;;;4.50;4.17;;;32.00;49.80;;;;;;5074868;28;20212;-62
2023/06/17 11:31:50;;;;;;;5.70;4.57;;;32.00;47.50;;;;;;5078683;28;20270;-62
2023/06/17 11:34:17;;;;;;;5.20;4.70;;;32.00;48.50;;;;;;5078631;28;20191;-62
2023/06/17 11:36:44;;;;;;;4.30;3.93;;;32.00;48.20;;;;;;5075279;28;20209;-62
2023/06/17 11:39:12;;;;;;;4.93;4.43;;;32.10;48.10;;;;;;5073819;28;20213;-62
2023/06/17 11:41:39;;;;;;;4.53;4.13;;;32.20;48.80;;;;;;5082669;28;20640;-63
2023/06/17 11:44:06;;;;;;;5.73;4.13;;;32.30;49.20;;;;;;5082604;28;20198;-62
2023/06/17 11:46:37;;;;;;;4.97;4.20;;;32.40;48.20;;;;;;5068781;28;20206;-63
2023/06/17 11:49:08;;;;;;;4.63;4.10;;;32.40;48.20;;;;;;5068669;28;20194;-62
2023/06/17 11:51:36;;;;;;;4.83;4.07;;;32.40;48.70;;;;;;5083918;28;20215;-62
2023/06/17 11:54:06;;;;;;;7.23;4.03;;;32.50;49.10;;;;;;5077117;28;20536;-62
2023/06/17 11:56:33;;;;;;;6.40;4.20;;;32.60;48.40;;;;;;5075795;28;20206;-62
2023/06/17 11:59:01;;;;;;;9.60;4.77;;;32.60;48.30;;;;;;5074447;28;20209;-62
2023/06/17 12:01:28;;;;;;;5.40;4.30;;;32.70;48.20;;;;;;5067988;28;20213;-62
2023/06/17 12:03:56;;;;;;;7.03;4.80;;;32.80;47.10;;;;;;5075407;28;20300;-61
2023/06/17 12:06:24;;;;;;;8.93;4.63;;;32.90;46.20;;;;;;5071949;28;20617;-62
2023/06/17 12:08:56;;;;;;;5.10;4.30;;;33.00;46.00;;;;;;5074262;28;20275;-62
2023/06/17 12:11:30;;;;;;;4.47;3.60;;;33.10;43.80;;;;;;5071824;28;20198;-61
2023/06/17 12:13:58;;;;;;;4.70;4.20;;;33.00;45.00;;;;;;5077788;28;20645;-62
2023/06/17 12:16:33;;;;;;;5.47;4.97;;;33.10;45.10;;;;;;5074406;28;20213;-62
2023/06/17 12:19:03;;;;;;;5.17;4.20;;;33.10;43.90;;;;;;5077366;28;20292;-62
2023/06/17 12:21:30;;;;;;;5.63;5.13;;;33.10;43.10;;;;;;5069654;28;20297;-62
2023/06/17 12:23:57;;;;;;;5.13;4.60;;;33.10;43.00;;;;;;5064958;28;20229;-62
2023/06/17 12:26:26;;;;;;;4.93;3.90;;;33.00;43.20;;;;;;5073370;28;20200;-62
2023/06/17 12:28:54;;;;;;;4.73;4.33;;;33.00;43.50;;;;;;5079783;28;20669;-61
2023/06/17 12:31:22;;;;;;;6.43;4.43;;;33.10;43.90;;;;;;5073998;28;20213;-61
2023/06/17 12:33:49;;;;;;;6.63;4.40;;;33.10;43.80;;;;;;5077244;28;20209;-61
2023/06/17 12:36:16;;;;;;;6.27;4.80;;;33.20;43.30;;;;;;5054535;28;21343;-63
2023/06/17 12:38:45;;;;;;;5.63;4.10;;;33.30;42.80;;;;;;5073801;28;20272;-63
2023/06/17 12:41:12;;;;;;;8.43;4.13;;;33.30;43.40;;;;;;5076191;28;20194;-64
2023/06/17 12:43:39;;;;;;;7.73;4.90;;;33.40;42.80;;;;;;5077376;28;20251;-62
2023/06/17 12:46:07;;;;;;;5.40;4.90;;;33.40;42.70;;;;;;5068513;28;20206;-62
2023/06/17 12:48:34;;;;;;;6.47;4.10;;;33.50;43.20;;;;;;5071084;28;20209;-62